Time;durP1;ratioP1;P1;durP2;ratioP2;P2;SDS_P1;SDS_P2;PMS_P1;PMS_P2;Temp;Humidity;BMP_temperature;BMP_pressure;BME280_temperature;BME280_humidity;BME280_pressure;Samples;Min_cycle;Max_cycle;Signal;HPM_P1;HPM_P2
2022/10/13 00:00:22;;;;;;;13.41;12.25;;;;;;;9.65;62.98;101484.22;457886;116;930226;-76
2022/10/13 00:01:25;;;;;;;12.82;11.82;;;;;;;9.65;62.92;101486.94;457973;116;922560;-76
2022/10/13 00:02:28;;;;;;;12.34;11.44;;;;;;;9.64;62.96;101486.09;458002;116;922374;-76
2022/10/13 00:03:31;;;;;;;13.32;12.23;;;;;;;9.62;62.96;101483.55;457954;116;922641;-76
2022/10/13 00:04:34;;;;;;;12.74;11.73;;;;;;;9.62;62.96;101483.55;458005;116;922910;-76
2022/10/13 00:05:42;;;;;;;12.78;11.74;;;;;;;9.62;62.94;101482.70;458039;116;922994;-77
2022/10/13 00:06:45;;;;;;;13.45;12.35;;;;;;;9.61;63.02;101481.00;457631;116;923090;-75
2022/10/13 00:07:49;;;;;;;12.82;11.68;;;;;;;9.62;63.01;101494.44;457959;116;923249;-75
2022/10/13 00:08:52;;;;;;;13.56;12.51;;;;;;;9.61;63.01;101490.02;457958;116;923322;-76
2022/10/13 00:09:55;;;;;;;12.60;11.44;;;;;;;9.60;63.03;101485.60;457909;116;922694;-76
2022/10/13 00:10:59;;;;;;;13.61;12.64;;;;;;;9.60;62.95;101488.33;457899;116;930283;-75
2022/10/13 00:12:03;;;;;;;12.86;11.72;;;;;;;9.59;63.01;101485.81;457816;116;922551;-76
2022/10/13 00:13:07;;;;;;;13.18;12.18;;;;;;;9.59;63.17;101486.62;458008;116;923002;-76
2022/10/13 00:14:10;;;;;;;13.57;12.42;;;;;;;9.59;63.19;101486.62;457921;116;922790;-76
2022/10/13 00:15:13;;;;;;;11.99;11.09;;;;;;;9.59;63.11;101489.34;457939;116;922564;-76
2022/10/13 00:16:19;;;;;;;12.53;11.48;;;;;;;9.59;63.17;101488.53;463319;114;923173;-76
2022/10/13 00:17:23;;;;;;;13.14;11.89;;;;;;;9.60;63.12;101487.48;465905;114;922682;-76
2022/10/13 00:18:26;;;;;;;12.54;11.53;;;;;;;9.60;63.14;101491.05;465979;114;922920;-77
2022/10/13 00:19:31;;;;;;;11.86;10.87;;;;;;;9.60;63.17;101488.33;465897;114;930287;-75
2022/10/13 00:20:35;;;;;;;12.04;11.08;;;;;;;9.62;63.18;101483.55;465961;114;930407;-75
2022/10/13 00:21:38;;;;;;;10.67;9.89;;;;;;;9.63;63.14;101482.52;465986;114;922494;-75
2022/10/13 00:22:41;;;;;;;9.84;9.14;;;;;;;9.63;63.08;101479.80;466134;114;923205;-76
2022/10/13 00:23:44;;;;;;;11.81;10.91;;;;;;;9.65;63.00;101478.77;466118;114;922536;-75
2022/10/13 00:24:51;;;;;;;11.29;10.40;;;;;;;9.65;63.04;101481.50;466134;114;922545;-74
2022/10/13 00:25:54;;;;;;;10.11;9.24;;;;;;;9.65;63.08;101482.31;465906;114;922489;-75
2022/10/13 00:26:57;;;;;;;9.69;8.91;;;;;;;9.66;63.09;101492.17;466119;114;922965;-75
2022/10/13 00:28:02;;;;;;;8.90;8.17;;;;;;;9.65;63.05;101487.76;466001;114;922634;-76
2022/10/13 00:29:06;;;;;;;9.96;9.21;;;;;;;9.67;63.05;101493.03;465842;114;923442;-76
2022/10/13 00:30:10;;;;;;;9.74;8.83;;;;;;;9.66;63.02;101485.88;461266;114;922553;-77
2022/10/13 00:31:18;;;;;;;9.33;8.63;;;;;;;9.67;62.99;101491.16;457870;116;922558;-76
2022/10/13 00:32:28;;;;;;;8.43;7.73;;;;;;;9.79;63.15;101484.22;482386;110;947044;-76
2022/10/13 00:33:31;;;;;;;8.49;7.87;;;;;;;9.69;63.12;101486.38;473890;112;922520;-75
2022/10/13 00:34:38;;;;;;;8.07;7.45;;;;;;;9.72;63.16;101487.86;465433;114;930536;-76
2022/10/13 00:35:47;;;;;;;7.41;6.81;;;;;;;9.72;63.13;101488.71;464976;114;922578;-76
2022/10/13 00:36:50;;;;;;;7.79;7.13;;;;;;;9.74;63.26;101483.09;462923;114;922828;-76
2022/10/13 00:37:53;;;;;;;8.16;7.17;;;;;;;9.76;63.17;101483.75;463126;114;922940;-76
2022/10/13 00:38:56;;;;;;;7.05;6.55;;;;;;;9.78;63.19;101492.56;463186;114;922926;-76
2022/10/13 00:39:59;;;;;;;9.26;7.61;;;;;;;9.79;63.16;101502.43;463249;114;922583;-76
2022/10/13 00:41:02;;;;;;;7.02;6.53;;;;;;;9.80;63.10;101495.95;463201;114;922598;-77
2022/10/13 00:42:08;;;;;;;7.69;7.19;;;;;;;9.81;63.10;101500.38;463076;114;922563;-76
2022/10/13 00:43:23;;;;;;;8.55;7.33;;;;;;;9.82;63.13;101493.88;462925;114;930684;-76
2022/10/13 00:45:03;;;;;;;7.55;6.93;;;;;;;9.83;63.21;101492.84;452909;116;922817;-76
2022/10/13 00:46:06;;;;;;;7.54;6.64;;;;;;;9.85;63.13;101499.81;462908;114;922996;-76
2022/10/13 00:47:09;;;;;;;7.48;6.95;;;;;;;9.86;63.19;101497.94;463201;114;922569;-76
2022/10/13 00:48:12;;;;;;;7.66;6.83;;;;;;;9.86;63.19;101489.77;463139;114;922540;-75
2022/10/13 00:49:15;;;;;;;7.31;6.72;;;;;;;9.87;63.33;101488.70;463187;114;922696;-76
2022/10/13 00:50:24;;;;;;;7.54;6.94;;;;;;;9.89;63.24;101492.09;462966;114;922592;-76
2022/10/13 00:51:32;;;;;;;7.05;6.47;;;;;;;9.90;63.19;101482.89;463953;113;922484;-76
2022/10/13 00:52:38;;;;;;;8.50;7.80;;;;;;;9.92;63.19;101489.83;467825;113;922935;-76
2022/10/13 00:53:42;;;;;;;8.29;7.58;;;;;;;9.92;63.18;101492.55;465581;113;922384;-76
2022/10/13 00:54:48;;;;;;;8.47;7.71;;;;;;;9.92;63.02;101492.55;461493;115;923114;-75
2022/10/13 00:55:54;;;;;;;7.41;6.83;;;;;;;9.94;62.95;101492.38;461511;115;923180;-76
2022/10/13 00:56:57;;;;;;;8.76;8.06;;;;;;;9.94;62.91;101492.38;461571;115;922511;-76
2022/10/13 00:58:04;;;;;;;8.08;7.41;;;;;;;9.95;63.00;101485.89;461716;114;922460;-76
2022/10/13 00:59:11;;;;;;;8.97;7.26;;;;;;;9.96;62.96;101487.59;452484;117;923198;-77
2022/10/13 01:00:15;;;;;;;7.91;7.32;;;;;;;9.96;62.93;101493.89;453640;115;922969;-76
2022/10/13 01:01:18;;;;;;;8.56;7.83;;;;;;;9.97;62.89;101494.73;461655;114;922877;-76
2022/10/13 01:02:23;;;;;;;8.90;8.23;;;;;;;9.98;62.95;101494.53;461719;114;922911;-76
2022/10/13 01:03:27;;;;;;;9.28;8.59;;;;;;;9.98;62.93;101486.35;461524;115;922532;-76
2022/10/13 01:04:36;;;;;;;9.37;8.59;;;;;;;10.00;62.88;101491.63;461683;115;922559;-75
2022/10/13 01:05:40;;;;;;;9.31;8.57;;;;;;;9.99;62.83;101485.33;461523;115;922547;-77
2022/10/13 01:06:44;;;;;;;9.76;8.79;;;;;;;9.99;62.84;101487.20;461534;115;922456;-76
2022/10/13 01:07:49;;;;;;;10.61;9.75;;;;;;;9.98;62.82;101483.63;461594;115;923202;-76
2022/10/13 01:08:53;;;;;;;10.28;9.47;;;;;;;9.97;62.80;101481.97;461688;115;922566;-76
2022/10/13 01:09:59;;;;;;;10.65;9.64;;;;;;;9.98;62.78;101480.05;461543;114;930435;-76
2022/10/13 01:11:37;;;;;;;10.98;10.05;;;;;;;9.97;62.83;101486.56;461569;115;922534;-76
2022/10/13 01:12:59;;;;;;;9.99;9.18;;;;;;;9.96;62.82;101482.99;461536;115;922495;-75
2022/10/13 01:14:08;;;;;;;10.17;9.34;;;;;;;9.95;62.86;101486.75;461133;115;922762;-76
2022/10/13 01:15:27;;;;;;;9.44;8.69;;;;;;;9.91;62.92;101479.99;461549;115;922833;-76
2022/10/13 01:16:33;;;;;;;10.65;9.82;;;;;;;9.90;62.98;101480.17;459740;114;922557;-77
2022/10/13 01:17:52;;;;;;;10.76;9.86;;;;;;;9.89;62.86;101478.47;459653;115;923044;-76
2022/10/13 01:19:04;;;;;;;10.44;9.52;;;;;;;9.87;62.85;101483.25;459617;115;923007;-75
2022/10/13 01:20:29;;;;;;;10.70;9.78;;;;;;;9.85;63.02;101472.57;450648;117;922829;-76
2022/10/13 01:21:48;;;;;;;11.49;10.49;;;;;;;9.85;63.04;101482.62;459611;115;922570;-76
2022/10/13 01:22:57;;;;;;;10.88;9.99;;;;;;;9.84;62.99;101480.92;459210;115;923027;-77
2022/10/13 01:24:25;;;;;;;10.01;9.31;;;;;;;9.81;63.04;101481.31;451658;115;922794;-77
2022/10/13 01:26:05;;;;;;;10.12;9.40;;;;;;;9.80;63.14;101474.17;459628;115;922541;-76
2022/10/13 01:27:29;;;;;;;10.97;10.08;;;;;;;9.78;63.29;101484.39;459235;115;922496;-76
2022/10/13 01:28:39;;;;;;;10.24;9.37;;;;;;;9.76;63.46;101478.31;459661;115;923301;-76
2022/10/13 01:30:03;;;;;;;10.35;9.47;;;;;;;9.76;63.61;101475.59;460455;114;922464;-76
2022/10/13 01:31:26;;;;;;;9.32;8.53;;;;;;;9.76;63.67;101478.31;464828;114;923027;-75
2022/10/13 01:32:36;;;;;;;9.30;8.54;;;;;;;9.76;63.77;101486.48;467769;112;923112;-76
2022/10/13 01:33:45;;;;;;;9.74;8.92;;;;;;;9.76;63.82;101472.86;467037;113;922812;-76
2022/10/13 01:34:51;;;;;;;9.54;8.81;;;;;;;9.76;63.70;101472.86;459045;115;923048;-76
2022/10/13 01:36:10;;;;;;;8.97;8.30;;;;;;;9.75;63.78;101473.89;459555;115;923013;-76
2022/10/13 01:37:33;;;;;;;10.21;9.34;;;;;;;9.76;63.81;101470.14;459565;115;922832;-76
2022/10/13 01:38:54;;;;;;;9.78;8.92;;;;;;;9.77;63.85;101472.65;459616;115;922524;-76
2022/10/13 01:40:08;;;;;;;8.43;7.83;;;;;;;9.77;63.87;101463.63;459609;115;922567;-76
2022/10/13 01:41:26;;;;;;;10.21;9.37;;;;;;;9.76;63.88;101470.14;459580;115;922452;-77
2022/10/13 01:42:50;;;;;;;9.82;9.11;;;;;;;9.76;63.91;101475.59;459622;115;922672;-76
2022/10/13 01:44:11;;;;;;;11.22;10.23;;;;;;;9.76;63.87;101475.59;439721;120;922941;-77
2022/10/13 01:45:19;;;;;;;11.21;10.25;;;;;;;9.74;63.89;101477.64;459576;115;922532;-76
2022/10/13 01:46:31;;;;;;;10.57;9.72;;;;;;;9.72;63.86;101474.25;459466;115;922563;-75
2022/10/13 01:47:35;;;;;;;10.57;9.68;;;;;;;9.71;64.01;101473.40;459481;115;922515;-76
2022/10/13 01:48:40;;;;;;;9.37;8.49;;;;;;;9.72;64.10;101472.38;459611;115;922499;-76
2022/10/13 01:49:45;;;;;;;9.91;9.18;;;;;;;9.73;64.19;101478.66;459076;115;930461;-77
2022/10/13 01:50:49;;;;;;;10.68;9.82;;;;;;;9.74;64.20;101483.09;457123;116;922568;-75
2022/10/13 01:51:55;;;;;;;10.87;10.07;;;;;;;9.74;64.17;101478.48;458561;115;922419;-77
2022/10/13 01:53:01;;;;;;;10.48;9.75;;;;;;;9.75;64.15;101468.44;459547;115;922559;-76
2022/10/13 01:54:04;;;;;;;11.04;10.12;;;;;;;9.75;64.18;101473.89;459557;115;922548;-76
2022/10/13 01:55:10;;;;;;;12.01;11.11;;;;;;;9.75;64.29;101474.73;459771;115;923001;-76
2022/10/13 01:56:15;;;;;;;10.92;10.04;;;;;;;9.76;64.40;101486.48;459546;115;922554;-76
2022/10/13 01:57:34;;;;;;;12.13;11.08;;;;;;;9.76;64.27;101486.48;459542;115;922901;-76
2022/10/13 01:58:37;;;;;;;10.77;9.97;;;;;;;9.76;64.26;101481.03;459550;115;922489;-76
2022/10/13 01:59:40;;;;;;;11.62;10.78;;;;;;;9.76;64.39;101478.31;459781;115;923043;-75
2022/10/13 02:00:53;;;;;;;11.88;11.00;;;;;;;9.75;64.50;101484.78;459765;115;922822;-76
2022/10/13 02:02:08;;;;;;;12.66;11.39;;;;;;;9.75;64.60;101487.50;458934;115;922570;-76
2022/10/13 02:03:21;;;;;;;11.84;10.82;;;;;;;9.74;64.62;101483.09;459246;115;923073;-76
2022/10/13 02:04:37;;;;;;;11.51;10.36;;;;;;;9.74;64.70;101483.09;459051;115;922927;-76
2022/10/13 02:05:49;;;;;;;11.06;10.15;;;;;;;9.72;64.70;101480.55;430633;123;923257;-75
2022/10/13 02:06:59;;;;;;;10.26;9.56;;;;;;;9.72;64.77;101475.09;450376;115;923120;-75
2022/10/13 02:08:14;;;;;;;10.73;9.77;;;;;;;9.72;64.81;101476.97;459837;115;922812;-77
2022/10/13 02:09:29;;;;;;;10.22;9.22;;;;;;;9.72;64.89;101474.25;460018;115;922212;-75
2022/10/13 02:10:44;;;;;;;11.40;10.46;;;;;;;9.72;64.76;101474.25;460457;115;922616;-77
2022/10/13 02:11:51;;;;;;;9.63;8.88;;;;;;;9.71;64.81;101475.27;456937;115;922200;-75
2022/10/13 02:13:03;;;;;;;9.93;9.07;;;;;;;9.70;64.89;101477.18;460293;115;922638;-75
2022/10/13 02:14:21;;;;;;;9.86;8.98;;;;;;;9.72;65.01;101483.27;459370;115;922546;-76
2022/10/13 02:15:28;;;;;;;10.13;9.27;;;;;;;9.73;65.12;101484.11;459472;115;922539;-76
2022/10/13 02:16:39;;;;;;;9.71;8.91;;;;;;;9.74;65.00;101483.09;462320;114;922838;-76
2022/10/13 02:17:42;;;;;;;10.21;9.31;;;;;;;9.74;64.92;101477.64;463022;114;922971;-77
2022/10/13 02:18:46;;;;;;;10.09;9.21;;;;;;;9.73;64.91;101482.23;463185;114;922557;-76
2022/10/13 02:19:49;;;;;;;9.98;9.11;;;;;;;9.73;64.96;101475.94;463140;114;922426;-76
2022/10/13 02:20:53;;;;;;;16.27;8.46;;;;;;;9.73;65.02;101476.79;463103;114;923503;-76
2022/10/13 02:21:57;;;;;;;9.44;8.62;;;;;;;9.74;65.09;101480.36;463089;114;922960;-76
2022/10/13 02:23:04;;;;;;;9.46;8.66;;;;;;;9.74;64.98;101480.36;463064;114;923041;-77
2022/10/13 02:24:07;;;;;;;9.20;8.31;;;;;;;9.75;64.92;101485.63;462963;114;922840;-76
2022/10/13 02:25:11;;;;;;;8.71;8.09;;;;;;;9.74;64.86;101483.94;463078;114;922494;-76
2022/10/13 02:26:14;;;;;;;8.54;7.87;;;;;;;9.73;64.91;101484.96;463168;114;922762;-75
2022/10/13 02:27:17;;;;;;;8.93;8.14;;;;;;;9.73;64.83;101489.56;463192;114;922458;-76
2022/10/13 02:28:20;;;;;;;9.08;8.38;;;;;;;9.72;64.79;101491.44;463262;114;923056;-75
2022/10/13 02:29:24;;;;;;;10.38;8.70;;;;;;;9.71;64.85;101486.16;463151;114;922979;-76
2022/10/13 02:30:30;;;;;;;8.65;7.85;;;;;;;9.72;64.83;101490.59;465007;114;922484;-76
2022/10/13 02:31:33;;;;;;;9.36;8.44;;;;;;;9.72;64.90;101488.71;456243;115;922765;-76
2022/10/13 02:32:37;;;;;;;8.30;7.61;;;;;;;9.72;64.85;101491.44;458947;113;922498;-75
2022/10/13 02:33:40;;;;;;;7.92;7.30;;;;;;;9.72;64.88;101488.71;466986;113;923086;-76
2022/10/13 02:34:43;;;;;;;8.25;7.47;;;;;;;9.72;64.80;101487.86;459713;115;922448;-76
2022/10/13 02:35:46;;;;;;;8.46;7.76;;;;;;;9.73;64.91;101492.28;459690;115;922983;-76
2022/10/13 02:36:48;;;;;;;7.97;7.27;;;;;;;9.74;64.85;101492.11;459774;115;922548;-76
2022/10/13 02:37:51;;;;;;;8.27;7.58;;;;;;;9.75;64.77;101487.50;459770;115;922566;-77
2022/10/13 02:38:55;;;;;;;8.39;7.64;;;;;;;9.75;64.72;101495.67;459745;115;923015;-76
2022/10/13 02:39:58;;;;;;;7.66;7.03;;;;;;;9.75;64.70;101501.13;459664;115;922960;-76
2022/10/13 02:41:01;;;;;;;6.62;6.10;;;;;;;9.74;64.63;101500.27;459687;115;923340;-76
2022/10/13 02:42:05;;;;;;;7.09;6.59;;;;;;;9.73;64.56;101495.86;459731;115;923092;-75
2022/10/13 02:43:08;;;;;;;7.51;6.91;;;;;;;9.73;64.56;101497.73;459612;115;922557;-76
2022/10/13 02:44:11;;;;;;;6.76;6.23;;;;;;;9.70;64.57;101492.67;459745;115;925317;-76
2022/10/13 02:45:17;;;;;;;7.00;6.39;;;;;;;9.71;64.61;101502.50;459510;115;922709;-76
2022/10/13 02:46:20;;;;;;;7.03;6.51;;;;;;;9.69;64.57;101491.82;463736;113;922546;-76
2022/10/13 02:47:23;;;;;;;6.24;5.84;;;;;;;9.68;64.59;101492.84;467767;113;922954;-75
2022/10/13 02:48:27;;;;;;;7.22;6.10;;;;;;;9.67;64.55;101493.03;467840;113;922470;-75
2022/10/13 02:49:30;;;;;;;6.62;6.12;;;;;;;9.66;64.56;101496.78;467884;113;922783;-76
2022/10/13 02:50:33;;;;;;;6.92;5.87;;;;;;;9.64;64.61;101491.54;467932;113;922526;-76
2022/10/13 02:51:36;;;;;;;6.41;5.91;;;;;;;9.64;64.62;101494.27;465197;113;922609;-76
2022/10/13 02:52:41;;;;;;;6.38;5.88;;;;;;;9.62;64.58;101493.59;459428;115;922471;-75
2022/10/13 02:53:45;;;;;;;6.04;5.55;;;;;;;9.61;64.58;101491.89;459657;115;923042;-76
2022/10/13 02:54:48;;;;;;;6.80;5.66;;;;;;;9.60;64.64;101498.37;459642;115;922485;-76
2022/10/13 02:55:51;;;;;;;7.06;6.28;;;;;;;9.60;64.69;101487.48;459792;115;922587;-76
2022/10/13 02:56:54;;;;;;;6.59;6.09;;;;;;;9.59;64.67;101496.70;450823;117;922603;-76
2022/10/13 02:57:57;;;;;;;6.21;5.72;;;;;;;9.57;64.76;101496.88;451070;115;923217;-75
2022/10/13 02:59:00;;;;;;;6.59;6.01;;;;;;;9.57;64.77;101504.20;459763;115;922876;-76
2022/10/13 03:00:04;;;;;;;6.51;5.96;;;;;;;9.55;64.72;101498.93;459774;115;922580;-76
2022/10/13 03:01:09;;;;;;;6.09;5.59;;;;;;;9.54;64.72;101499.11;459574;115;923081;-77
2022/10/13 03:02:13;;;;;;;5.71;5.18;;;;;;;9.53;64.74;101494.72;459558;115;922557;-75
2022/10/13 03:03:16;;;;;;;6.35;5.26;;;;;;;9.52;64.77;101499.31;459636;115;922763;-77
2022/10/13 03:04:19;;;;;;;5.03;4.72;;;;;;;9.51;64.79;101504.94;459725;115;924372;-76
2022/10/13 03:05:22;;;;;;;4.84;4.52;;;;;;;9.50;64.79;101509.53;459692;115;922540;-76
2022/10/13 03:06:25;;;;;;;6.03;4.94;;;;;;;9.48;64.77;101508.86;459656;115;922989;-76
2022/10/13 03:07:28;;;;;;;5.37;4.84;;;;;;;9.48;64.83;101517.03;459642;115;922466;-76
2022/10/13 03:08:32;;;;;;;5.64;5.04;;;;;;;9.47;64.75;101512.64;459693;115;922576;-77
2022/10/13 03:09:35;;;;;;;5.36;4.39;;;;;;;9.44;64.78;101510.27;459481;115;923091;-76
2022/10/13 03:10:38;;;;;;;4.96;4.61;;;;;;;9.44;64.81;101509.42;459659;115;922841;-76
2022/10/13 03:11:41;;;;;;;4.77;4.42;;;;;;;9.42;64.87;101512.35;459694;115;922556;-76
2022/10/13 03:12:44;;;;;;;35.02;5.09;;;;;;;9.41;64.85;101509.80;459693;115;922612;-77
2022/10/13 03:13:47;;;;;;;5.03;4.65;;;;;;;9.40;64.89;101517.12;459669;115;922602;-77
2022/10/13 03:14:50;;;;;;;4.79;4.31;;;;;;;9.39;64.95;101517.30;459668;115;923047;-76
2022/10/13 03:15:53;;;;;;;6.68;4.72;;;;;;;9.37;64.96;101514.75;461356;113;922947;-76
2022/10/13 03:16:57;;;;;;;5.08;4.58;;;;;;;9.35;65.00;101516.83;466498;113;923332;-77
2022/10/13 03:18:00;;;;;;;5.25;4.83;;;;;;;9.34;65.01;101519.73;466492;113;922714;-77
2022/10/13 03:19:03;;;;;;;5.12;4.66;;;;;;;9.32;65.02;101516.36;466481;113;922493;-76
2022/10/13 03:20:07;;;;;;;4.69;4.29;;;;;;;9.30;65.11;101512.97;466387;113;922502;-77
2022/10/13 03:21:10;;;;;;;4.59;4.29;;;;;;;9.26;65.11;101517.09;466391;113;923366;-76
2022/10/13 03:22:14;;;;;;;7.05;4.79;;;;;;;9.26;65.11;101517.09;466397;113;922687;-76
2022/10/13 03:23:17;;;;;;;4.50;4.12;;;;;;;9.24;65.19;101519.99;466396;113;930506;-76
2022/10/13 03:24:20;;;;;;;4.66;4.26;;;;;;;9.21;65.28;101514.90;466499;113;922575;-77
2022/10/13 03:25:23;;;;;;;4.84;4.48;;;;;;;9.20;65.35;101516.80;466467;113;922629;-77
2022/10/13 03:26:27;;;;;;;7.59;5.16;;;;;;;9.19;65.49;101514.25;466487;113;923386;-77
2022/10/13 03:27:30;;;;;;;4.72;4.22;;;;;;;9.16;65.50;101512.73;466505;113;923047;-77
2022/10/13 03:28:33;;;;;;;4.69;4.28;;;;;;;9.16;65.56;101517.32;466475;113;922504;-77
2022/10/13 03:29:36;;;;;;;5.15;4.66;;;;;;;9.13;65.63;101509.54;466003;113;922810;-77
2022/10/13 03:30:39;;;;;;;4.17;3.79;;;;;;;9.11;65.68;101508.87;457160;116;922953;-77
2022/10/13 03:31:43;;;;;;;5.10;4.66;;;;;;;9.09;65.75;101517.23;458221;115;922798;-76
2022/10/13 03:32:46;;;;;;;4.80;4.39;;;;;;;9.07;65.96;101502.95;459677;115;922538;-76
2022/10/13 03:33:50;;;;;;;6.93;4.06;;;;;;;9.06;65.96;101508.57;459117;115;922492;-77
2022/10/13 03:34:52;;;;;;;4.45;4.12;;;;;;;9.04;66.00;101514.19;457143;116;923642;-76
2022/10/13 03:36:01;;;;;;;4.90;4.50;;;;;;;9.01;66.13;101514.56;457207;116;922849;-76
2022/10/13 03:37:05;;;;;;;4.33;3.97;;;;;;;9.00;66.19;101515.58;457040;116;922544;-77
2022/10/13 03:38:10;;;;;;;5.69;4.97;;;;;;;8.99;66.24;101510.31;457052;116;923271;-76
2022/10/13 03:39:15;;;;;;;4.95;4.29;;;;;;;8.98;66.27;101511.37;456938;116;922572;-77
2022/10/13 03:40:18;;;;;;;5.13;4.45;;;;;;;8.96;66.32;101511.55;457052;113;922567;-76
2022/10/13 03:41:21;;;;;;;4.40;4.00;;;;;;;8.95;66.37;101518.01;457240;116;923001;-77
2022/10/13 03:42:27;;;;;;;5.15;4.64;;;;;;;8.94;66.45;101520.90;457030;113;922924;-77
2022/10/13 03:43:30;;;;;;;6.44;4.49;;;;;;;8.93;66.47;101516.52;457174;116;922914;-76
2022/10/13 03:44:33;;;;;;;5.59;5.12;;;;;;;8.91;66.57;101522.13;457163;116;922917;-75
2022/10/13 03:45:36;;;;;;;4.88;4.48;;;;;;;8.91;66.62;101523.99;457168;116;922720;-77
2022/10/13 03:46:39;;;;;;;6.15;4.70;;;;;;;8.89;66.71;101515.16;457177;116;923511;-76
2022/10/13 03:47:42;;;;;;;5.59;4.22;;;;;;;8.89;66.78;101515.16;457217;116;922555;-76
2022/10/13 03:48:46;;;;;;;5.39;4.79;;;;;;;8.88;66.89;101519.75;457216;116;923056;-75
2022/10/13 03:49:49;;;;;;;7.99;4.56;;;;;;;8.88;66.93;101524.34;447759;118;922963;-76
2022/10/13 03:50:52;;;;;;;5.58;4.39;;;;;;;8.87;67.03;101517.23;439699;120;923121;-77
2022/10/13 03:51:55;;;;;;;5.38;4.63;;;;;;;8.87;67.02;101519.95;458810;115;923042;-77
2022/10/13 03:52:58;;;;;;;4.87;4.48;;;;;;;8.87;67.02;101522.67;459706;115;923100;-77
2022/10/13 03:54:01;;;;;;;5.42;4.66;;;;;;;8.87;67.10;101525.39;459782;115;922686;-76
2022/10/13 03:55:05;;;;;;;5.18;4.72;;;;;;;8.87;67.18;101522.67;459774;115;922500;-77
2022/10/13 03:56:12;;;;;;;4.93;4.53;;;;;;;8.86;67.25;101518.25;459679;115;922750;-76
2022/10/13 03:57:17;;;;;;;5.38;4.65;;;;;;;8.87;67.27;101526.23;459223;115;922555;-77
2022/10/13 03:58:21;;;;;;;5.03;4.56;;;;;;;8.87;67.30;101526.23;459750;115;922637;-76
2022/10/13 03:59:26;;;;;;;4.57;4.03;;;;;;;8.88;67.36;101524.34;459527;115;922579;-77
2022/10/13 04:00:29;;;;;;;4.57;4.27;;;;;;;8.89;67.49;101524.17;459635;115;922542;-76
2022/10/13 04:01:33;;;;;;;5.23;4.80;;;;;;;8.89;67.43;101520.59;459714;115;922777;-78
2022/10/13 04:02:36;;;;;;;4.91;4.50;;;;;;;8.90;67.46;101525.02;459683;115;922874;-77
2022/10/13 04:03:39;;;;;;;5.84;4.87;;;;;;;8.92;67.47;101522.97;459759;115;922546;-78
2022/10/13 04:04:42;;;;;;;5.25;4.75;;;;;;;8.93;67.52;101516.52;459762;115;922928;-77
2022/10/13 04:05:45;;;;;;;4.53;4.23;;;;;;;8.93;67.58;101521.95;459785;115;922488;-76
2022/10/13 04:06:48;;;;;;;10.11;5.05;;;;;;;8.94;67.52;101521.75;459702;115;923017;-77
2022/10/13 04:07:52;;;;;;;4.86;4.41;;;;;;;8.94;67.49;101527.19;459641;115;922882;-77
2022/10/13 04:08:57;;;;;;;4.40;4.06;;;;;;;8.94;67.47;101524.47;459434;115;930453;-76
2022/10/13 04:10:01;;;;;;;5.22;4.74;;;;;;;8.95;67.52;101525.31;459543;115;930517;-76
2022/10/13 04:11:07;;;;;;;4.57;4.16;;;;;;;8.96;67.56;101521.58;459690;115;923093;-76
2022/10/13 04:12:11;;;;;;;5.26;4.69;;;;;;;8.96;67.64;101511.55;459472;115;923015;-76
2022/10/13 04:13:14;;;;;;;4.62;4.22;;;;;;;8.99;67.69;101527.48;459516;115;922688;-76
2022/10/13 04:14:18;;;;;;;5.44;5.04;;;;;;;9.02;67.70;101515.41;459532;115;930512;-76
2022/10/13 04:15:21;;;;;;;5.56;4.25;;;;;;;9.02;67.71;101518.98;459543;115;930615;-76
2022/10/13 04:16:27;;;;;;;5.01;4.62;;;;;;;9.04;67.78;101518.81;464778;113;927319;-76
2022/10/13 04:17:32;;;;;;;4.62;4.32;;;;;;;9.05;67.74;101521.32;466293;113;922736;-76
2022/10/13 04:18:35;;;;;;;5.39;4.89;;;;;;;9.06;67.68;101522.17;466488;113;922622;-75
2022/10/13 04:19:38;;;;;;;4.82;4.42;;;;;;;9.05;67.64;101525.91;466539;113;922534;-75
2022/10/13 04:20:41;;;;;;;5.12;4.70;;;;;;;9.05;67.62;101524.05;466466;113;922547;-75
2022/10/13 04:21:44;;;;;;;5.96;4.76;;;;;;;9.04;67.59;101522.34;466519;113;922949;-76
2022/10/13 04:22:47;;;;;;;6.28;5.08;;;;;;;9.04;67.53;101519.62;466513;113;922985;-76
2022/10/13 04:23:50;;;;;;;5.24;4.77;;;;;;;9.04;67.51;101535.13;466521;113;922634;-76
2022/10/13 04:24:53;;;;;;;4.49;4.17;;;;;;;9.02;67.52;101529.02;466466;113;922550;-75
2022/10/13 04:25:56;;;;;;;5.76;5.26;;;;;;;9.01;67.51;101528.16;466518;113;922584;-77
2022/10/13 04:26:59;;;;;;;4.82;4.44;;;;;;;9.01;67.51;101530.03;466475;113;922631;-76
2022/10/13 04:28:04;;;;;;;5.51;4.79;;;;;;;9.00;67.49;101534.63;466413;113;922525;-76
2022/10/13 04:29:09;;;;;;;5.33;4.86;;;;;;;9.00;67.52;101533.78;466307;113;922470;-76
2022/10/13 04:30:13;;;;;;;5.46;5.03;;;;;;;8.99;67.51;101540.23;460426;113;922455;-78
2022/10/13 04:31:16;;;;;;;5.45;4.75;;;;;;;8.98;67.66;101538.57;457182;116;922525;-77
2022/10/13 04:32:19;;;;;;;4.73;4.33;;;;;;;8.98;67.66;101538.57;455544;116;931033;-77
2022/10/13 04:33:23;;;;;;;6.65;5.05;;;;;;;8.98;67.67;101541.30;456294;113;931094;-77
2022/10/13 04:34:26;;;;;;;6.09;4.93;;;;;;;8.98;67.72;101538.57;467959;113;922529;-76
2022/10/13 04:35:30;;;;;;;6.30;4.72;;;;;;;8.98;67.71;101541.30;467862;113;922655;-76
2022/10/13 04:36:33;;;;;;;8.29;4.83;;;;;;;8.99;67.72;101542.95;467813;113;922479;-76
2022/10/13 04:37:37;;;;;;;5.35;4.59;;;;;;;8.99;67.74;101543.81;467917;113;922656;-76
2022/10/13 04:38:44;;;;;;;4.97;4.51;;;;;;;8.99;67.78;101548.40;464345;113;922636;-75
2022/10/13 04:39:47;;;;;;;5.29;4.42;;;;;;;9.01;67.84;101546.36;459748;115;923037;-76
2022/10/13 04:40:50;;;;;;;9.19;5.31;;;;;;;9.02;67.89;101542.61;459609;115;922970;-76
2022/10/13 04:41:53;;;;;;;6.93;4.87;;;;;;;9.04;67.97;101548.73;459751;115;923093;-76
2022/10/13 04:42:56;;;;;;;5.68;5.14;;;;;;;9.05;67.92;101545.80;459686;115;923051;-76
2022/10/13 04:44:01;;;;;;;4.78;4.30;;;;;;;9.06;67.90;101544.78;459736;115;922572;-76
2022/10/13 04:45:05;;;;;;;5.67;5.16;;;;;;;9.06;67.84;101550.23;459559;115;923080;-76
2022/10/13 04:46:17;;;;;;;4.94;4.54;;;;;;;9.06;67.79;101547.50;459605;115;922548;-78
2022/10/13 04:47:20;;;;;;;5.63;4.98;;;;;;;9.06;67.81;101550.23;459506;115;930690;-76
2022/10/13 04:48:24;;;;;;;8.18;5.83;;;;;;;9.04;67.82;101552.27;459790;115;922724;-76
2022/10/13 04:49:27;;;;;;;6.74;6.19;;;;;;;9.05;67.83;101555.84;459830;115;922548;-74
2022/10/13 04:50:30;;;;;;;7.35;6.74;;;;;;;9.03;67.90;101555.20;459842;115;922567;-76
2022/10/13 04:51:36;;;;;;;7.34;6.66;;;;;;;9.03;67.80;101555.20;461195;114;923021;-76
2022/10/13 04:52:40;;;;;;;8.41;7.69;;;;;;;9.02;67.83;101554.34;464964;114;922950;-76
2022/10/13 04:53:43;;;;;;;8.56;7.48;;;;;;;9.02;67.87;101558.94;465067;114;922749;-77
2022/10/13 04:54:47;;;;;;;8.90;8.06;;;;;;;9.01;67.94;101558.09;464873;114;922810;-76
2022/10/13 04:55:50;;;;;;;9.29;8.39;;;;;;;9.02;68.00;101558.94;464969;114;930453;-77
2022/10/13 04:56:53;;;;;;;9.28;8.43;;;;;;;9.02;67.93;101558.94;465040;114;922548;-75
2022/10/13 04:57:56;;;;;;;9.34;8.52;;;;;;;9.02;67.88;101561.66;465021;114;922466;-77
2022/10/13 04:58:59;;;;;;;9.18;8.43;;;;;;;9.00;67.80;101556.39;465038;114;922499;-76
2022/10/13 05:00:06;;;;;;;9.35;8.56;;;;;;;8.99;67.94;101562.84;464964;114;922583;-75
2022/10/13 05:01:12;;;;;;;9.06;8.25;;;;;;;8.99;67.90;101560.13;464761;114;922843;-76
2022/10/13 05:02:17;;;;;;;10.28;9.44;;;;;;;8.99;67.99;101570.16;464067;114;923119;-76
2022/10/13 05:03:21;;;;;;;9.66;8.84;;;;;;;8.98;67.95;101563.05;464938;114;922447;-75
2022/10/13 05:04:24;;;;;;;9.67;8.86;;;;;;;8.98;67.97;101558.46;464979;114;930459;-77
2022/10/13 05:05:27;;;;;;;10.34;9.26;;;;;;;8.98;68.04;101561.18;465009;114;922439;-76